sensor_id;sensor_type;location;lat;lon;timestamp;P1;durP1;ratioP1;P2;durP2;ratioP2
16977;SDS011;8605;52.548;4.918;2023-03-11T00:04:27;1.97;;;0.70;;
16977;SDS011;8605;52.548;4.918;2023-03-11T00:09:31;3.67;;;1.20;;
16977;SDS011;8605;52.548;4.918;2023-03-11T00:14:35;4.83;;;1.60;;
16977;SDS011;8605;52.548;4.918;2023-03-11T00:19:38;10.60;;;3.37;;
16977;SDS011;8605;52.548;4.918;2023-03-11T00:24:42;3.17;;;1.43;;
16977;SDS011;8605;52.548;4.918;2023-03-11T00:29:45;4.57;;;1.50;;
16977;SDS011;8605;52.548;4.918;2023-03-11T00:34:48;7.73;;;1.80;;
16977;SDS011;8605;52.548;4.918;2023-03-11T00:39:53;4.07;;;1.77;;
16977;SDS011;8605;52.548;4.918;2023-03-11T00:44:56;2.33;;;1.40;;
16977;SDS011;8605;52.548;4.918;2023-03-11T00:49:58;4.97;;;1.50;;
16977;SDS011;8605;52.548;4.918;2023-03-11T00:55:03;7.13;;;1.80;;
16977;SDS011;8605;52.548;4.918;2023-03-11T01:00:11;3.93;;;1.83;;
16977;SDS011;8605;52.548;4.918;2023-03-11T01:05:16;5.20;;;2.03;;
16977;SDS011;8605;52.548;4.918;2023-03-11T01:10:22;2.80;;;1.67;;
16977;SDS011;8605;52.548;4.918;2023-03-11T01:15:26;2.83;;;1.47;;
16977;SDS011;8605;52.548;4.918;2023-03-11T01:20:32;5.93;;;2.37;;
16977;SDS011;8605;52.548;4.918;2023-03-11T01:25:38;5.30;;;1.83;;
16977;SDS011;8605;52.548;4.918;2023-03-11T01:30:41;3.53;;;1.30;;
16977;SDS011;8605;52.548;4.918;2023-03-11T01:35:44;4.83;;;1.30;;
16977;SDS011;8605;52.548;4.918;2023-03-11T01:40:49;5.63;;;1.20;;
16977;SDS011;8605;52.548;4.918;2023-03-11T01:46:07;2.90;;;1.50;;
16977;SDS011;8605;52.548;4.918;2023-03-11T01:51:13;1.43;;;1.27;;
16977;SDS011;8605;52.548;4.918;2023-03-11T01:56:18;1.33;;;1.23;;
16977;SDS011;8605;52.548;4.918;2023-03-11T02:01:22;4.97;;;2.00;;
16977;SDS011;8605;52.548;4.918;2023-03-11T02:06:26;3.03;;;1.30;;
16977;SDS011;8605;52.548;4.918;2023-03-11T02:11:30;3.43;;;1.30;;
16977;SDS011;8605;52.548;4.918;2023-03-11T02:16:34;3.60;;;1.40;;
16977;SDS011;8605;52.548;4.918;2023-03-11T02:21:37;3.97;;;1.23;;
16977;SDS011;8605;52.548;4.918;2023-03-11T02:26:48;3.80;;;0.80;;
16977;SDS011;8605;52.548;4.918;2023-03-11T02:31:53;5.57;;;1.50;;
16977;SDS011;8605;52.548;4.918;2023-03-11T02:36:57;7.37;;;1.37;;
16977;SDS011;8605;52.548;4.918;2023-03-11T02:42:03;7.23;;;1.63;;
16977;SDS011;8605;52.548;4.918;2023-03-11T02:47:08;1.57;;;1.20;;
16977;SDS011;8605;52.548;4.918;2023-03-11T02:52:11;2.90;;;1.47;;
16977;SDS011;8605;52.548;4.918;2023-03-11T02:57:15;3.03;;;1.27;;
16977;SDS011;8605;52.548;4.918;2023-03-11T03:02:18;2.17;;;1.40;;
16977;SDS011;8605;52.548;4.918;2023-03-11T03:07:21;2.33;;;1.10;;
16977;SDS011;8605;52.548;4.918;2023-03-11T03:12:26;2.13;;;1.83;;
16977;SDS011;8605;52.548;4.918;2023-03-11T03:17:29;2.57;;;0.80;;
16977;SDS011;8605;52.548;4.918;2023-03-11T03:22:32;8.23;;;1.43;;
16977;SDS011;8605;52.548;4.918;2023-03-11T03:28:03;1.77;;;0.80;;
16977;SDS011;8605;52.548;4.918;2023-03-11T03:33:09;3.43;;;1.07;;
16977;SDS011;8605;52.548;4.918;2023-03-11T03:38:12;1.40;;;1.30;;
16977;SDS011;8605;52.548;4.918;2023-03-11T03:43:17;2.43;;;1.10;;
16977;SDS011;8605;52.548;4.918;2023-03-11T03:48:21;3.50;;;0.70;;
16977;SDS011;8605;52.548;4.918;2023-03-11T03:53:24;2.37;;;1.20;;
16977;SDS011;8605;52.548;4.918;2023-03-11T03:58:28;2.50;;;1.30;;
16977;SDS011;8605;52.548;4.918;2023-03-11T04:03:31;6.17;;;1.40;;
16977;SDS011;8605;52.548;4.918;2023-03-11T04:08:40;4.07;;;1.77;;
16977;SDS011;8605;52.548;4.918;2023-03-11T04:13:46;11.03;;;1.63;;
16977;SDS011;8605;52.548;4.918;2023-03-11T04:18:49;3.90;;;1.27;;
16977;SDS011;8605;52.548;4.918;2023-03-11T04:23:54;3.73;;;1.30;;
16977;SDS011;8605;52.548;4.918;2023-03-11T04:29:03;5.03;;;1.47;;
16977;SDS011;8605;52.548;4.918;2023-03-11T04:34:12;1.43;;;1.03;;
16977;SDS011;8605;52.548;4.918;2023-03-11T04:39:15;1.47;;;1.27;;
16977;SDS011;8605;52.548;4.918;2023-03-11T04:44:21;2.77;;;1.40;;
16977;SDS011;8605;52.548;4.918;2023-03-11T04:49:24;2.33;;;1.57;;
16977;SDS011;8605;52.548;4.918;2023-03-11T04:54:28;4.60;;;1.50;;
16977;SDS011;8605;52.548;4.918;2023-03-11T04:59:32;2.73;;;1.30;;
16977;SDS011;8605;52.548;4.918;2023-03-11T05:04:35;1.40;;;1.10;;
16977;SDS011;8605;52.548;4.918;2023-03-11T05:09:38;1.40;;;1.20;;
16977;SDS011;8605;52.548;4.918;2023-03-11T05:14:43;1.63;;;1.33;;
16977;SDS011;8605;52.548;4.918;2023-03-11T05:19:46;1.30;;;1.20;;
16977;SDS011;8605;52.548;4.918;2023-03-11T05:24:57;1.43;;;1.33;;
16977;SDS011;8605;52.548;4.918;2023-03-11T05:30:02;2.20;;;1.50;;
16977;SDS011;8605;52.548;4.918;2023-03-11T05:35:08;4.80;;;1.13;;
16977;SDS011;8605;52.548;4.918;2023-03-11T05:40:11;1.57;;;1.17;;
16977;SDS011;8605;52.548;4.918;2023-03-11T05:45:16;6.13;;;1.50;;
16977;SDS011;8605;52.548;4.918;2023-03-11T05:50:22;2.87;;;1.73;;
16977;SDS011;8605;52.548;4.918;2023-03-11T05:55:26;4.87;;;1.40;;
16977;SDS011;8605;52.548;4.918;2023-03-11T06:00:30;2.57;;;1.47;;
16977;SDS011;8605;52.548;4.918;2023-03-11T06:05:42;6.63;;;1.60;;
16977;SDS011;8605;52.548;4.918;2023-03-11T06:10:46;2.07;;;1.70;;
16977;SDS011;8605;52.548;4.918;2023-03-11T06:15:52;1.37;;;0.93;;
16977;SDS011;8605;52.548;4.918;2023-03-11T06:20:57;2.07;;;1.13;;
16977;SDS011;8605;52.548;4.918;2023-03-11T06:26:02;5.53;;;2.00;;
16977;SDS011;8605;52.548;4.918;2023-03-11T06:31:14;3.63;;;1.60;;
16977;SDS011;8605;52.548;4.918;2023-03-11T06:36:19;2.63;;;2.13;;
16977;SDS011;8605;52.548;4.918;2023-03-11T06:41:23;2.60;;;1.90;;
16977;SDS011;8605;52.548;4.918;2023-03-11T06:46:28;3.70;;;1.57;;
16977;SDS011;8605;52.548;4.918;2023-03-11T06:51:32;1.80;;;1.60;;
16977;SDS011;8605;52.548;4.918;2023-03-11T06:56:36;7.50;;;2.57;;
16977;SDS011;8605;52.548;4.918;2023-03-11T07:01:42;4.43;;;1.93;;
16977;SDS011;8605;52.548;4.918;2023-03-11T07:06:45;5.93;;;2.30;;
16977;SDS011;8605;52.548;4.918;2023-03-11T07:11:53;4.93;;;2.40;;
16977;SDS011;8605;52.548;4.918;2023-03-11T07:17:03;3.60;;;2.00;;
16977;SDS011;8605;52.548;4.918;2023-03-11T07:22:11;2.60;;;1.60;;
16977;SDS011;8605;52.548;4.918;2023-03-11T07:27:15;3.97;;;1.63;;
16977;SDS011;8605;52.548;4.918;2023-03-11T07:32:20;6.60;;;2.10;;
16977;SDS011;8605;52.548;4.918;2023-03-11T07:37:23;2.67;;;1.93;;
16977;SDS011;8605;52.548;4.918;2023-03-11T07:42:26;3.80;;;1.27;;
16977;SDS011;8605;52.548;4.918;2023-03-11T07:47:30;4.00;;;1.97;;
16977;SDS011;8605;52.548;4.918;2023-03-11T07:52:33;4.10;;;1.70;;
16977;SDS011;8605;52.548;4.918;2023-03-11T07:57:35;8.90;;;2.37;;
16977;SDS011;8605;52.548;4.918;2023-03-11T08:02:40;4.40;;;2.10;;
16977;SDS011;8605;52.548;4.918;2023-03-11T08:07:43;9.03;;;1.83;;
16977;SDS011;8605;52.548;4.918;2023-03-11T08:12:46;4.03;;;2.43;;
16977;SDS011;8605;52.548;4.918;2023-03-11T08:17:50;2.30;;;1.90;;
16977;SDS011;8605;52.548;4.918;2023-03-11T08:22:53;3.20;;;2.17;;
16977;SDS011;8605;52.548;4.918;2023-03-11T08:27:59;3.33;;;2.13;;
16977;SDS011;8605;52.548;4.918;2023-03-11T08:33:03;5.00;;;3.00;;
16977;SDS011;8605;52.548;4.918;2023-03-11T08:38:06;7.80;;;3.03;;
16977;SDS011;8605;52.548;4.918;2023-03-11T08:43:10;4.33;;;3.27;;
16977;SDS011;8605;52.548;4.918;2023-03-11T08:48:15;3.60;;;2.70;;
16977;SDS011;8605;52.548;4.918;2023-03-11T08:53:18;6.03;;;3.10;;
16977;SDS011;8605;52.548;4.918;2023-03-11T08:58:21;5.40;;;3.43;;
16977;SDS011;8605;52.548;4.918;2023-03-11T09:03:25;7.70;;;4.63;;
16977;SDS011;8605;52.548;4.918;2023-03-11T09:08:28;7.17;;;4.10;;
16977;SDS011;8605;52.548;4.918;2023-03-11T09:13:31;8.40;;;4.20;;
16977;SDS011;8605;52.548;4.918;2023-03-11T09:18:35;6.47;;;4.63;;
16977;SDS011;8605;52.548;4.918;2023-03-11T09:23:38;6.57;;;4.17;;
16977;SDS011;8605;52.548;4.918;2023-03-11T09:28:44;7.87;;;4.60;;
16977;SDS011;8605;52.548;4.918;2023-03-11T09:33:51;5.17;;;3.60;;
16977;SDS011;8605;52.548;4.918;2023-03-11T09:38:55;9.70;;;3.47;;
16977;SDS011;8605;52.548;4.918;2023-03-11T09:44:01;6.33;;;3.53;;
16977;SDS011;8605;52.548;4.918;2023-03-11T09:49:15;5.07;;;3.37;;
16977;SDS011;8605;52.548;4.918;2023-03-11T09:54:22;8.27;;;2.33;;
16977;SDS011;8605;52.548;4.918;2023-03-11T09:59:26;7.00;;;2.00;;
16977;SDS011;8605;52.548;4.918;2023-03-11T10:04:35;4.83;;;2.47;;
16977;SDS011;8605;52.548;4.918;2023-03-11T10:09:42;4.37;;;2.93;;
16977;SDS011;8605;52.548;4.918;2023-03-11T10:15:01;7.80;;;2.70;;
16977;SDS011;8605;52.548;4.918;2023-03-11T10:20:12;6.87;;;2.93;;
16977;SDS011;8605;52.548;4.918;2023-03-11T10:25:17;5.43;;;3.30;;
16977;SDS011;8605;52.548;4.918;2023-03-11T10:30:24;5.47;;;3.70;;
16977;SDS011;8605;52.548;4.918;2023-03-11T10:35:33;4.33;;;2.03;;
16977;SDS011;8605;52.548;4.918;2023-03-11T10:40:40;4.40;;;2.60;;
16977;SDS011;8605;52.548;4.918;2023-03-11T10:45:44;3.83;;;2.00;;
16977;SDS011;8605;52.548;4.918;2023-03-11T10:50:51;4.87;;;2.40;;
16977;SDS011;8605;52.548;4.918;2023-03-11T10:55:58;6.67;;;1.60;;
16977;SDS011;8605;52.548;4.918;2023-03-11T11:01:03;3.40;;;1.67;;
16977;SDS011;8605;52.548;4.918;2023-03-11T11:06:17;1.40;;;1.13;;
16977;SDS011;8605;52.548;4.918;2023-03-11T11:11:23;7.20;;;1.50;;
16977;SDS011;8605;52.548;4.918;2023-03-11T11:16:26;3.10;;;1.40;;
16977;SDS011;8605;52.548;4.918;2023-03-11T11:21:32;2.13;;;1.13;;
16977;SDS011;8605;52.548;4.918;2023-03-11T11:26:36;2.13;;;1.13;;
16977;SDS011;8605;52.548;4.918;2023-03-11T11:31:39;1.90;;;0.87;;
16977;SDS011;8605;52.548;4.918;2023-03-11T11:36:44;1.23;;;0.90;;
16977;SDS011;8605;52.548;4.918;2023-03-11T11:41:47;3.43;;;1.30;;
16977;SDS011;8605;52.548;4.918;2023-03-11T11:46:51;3.33;;;1.20;;
16977;SDS011;8605;52.548;4.918;2023-03-11T11:51:58;1.50;;;1.30;;
16977;SDS011;8605;52.548;4.918;2023-03-11T11:57:09;4.90;;;1.00;;
16977;SDS011;8605;52.548;4.918;2023-03-11T12:02:21;1.67;;;0.90;;
16977;SDS011;8605;52.548;4.918;2023-03-11T12:07:39;1.63;;;1.20;;
16977;SDS011;8605;52.548;4.918;2023-03-11T12:12:52;3.07;;;1.47;;
16977;SDS011;8605;52.548;4.918;2023-03-11T12:18:19;2.70;;;1.03;;
16977;SDS011;8605;52.548;4.918;2023-03-11T12:23:33;3.00;;;1.30;;
16977;SDS011;8605;52.548;4.918;2023-03-11T12:28:42;1.47;;;1.20;;
16977;SDS011;8605;52.548;4.918;2023-03-11T12:33:48;3.77;;;1.73;;
16977;SDS011;8605;52.548;4.918;2023-03-11T12:38:54;2.80;;;1.60;;
16977;SDS011;8605;52.548;4.918;2023-03-11T12:44:00;7.30;;;2.67;;
16977;SDS011;8605;52.548;4.918;2023-03-11T12:49:08;4.00;;;1.67;;
16977;SDS011;8605;52.548;4.918;2023-03-11T12:54:25;3.10;;;1.50;;
16977;SDS011;8605;52.548;4.918;2023-03-11T12:59:42;3.27;;;1.53;;
16977;SDS011;8605;52.548;4.918;2023-03-11T13:04:55;2.17;;;1.50;;
16977;SDS011;8605;52.548;4.918;2023-03-11T13:10:04;3.40;;;1.77;;
16977;SDS011;8605;52.548;4.918;2023-03-11T13:15:24;1.47;;;1.23;;
16977;SDS011;8605;52.548;4.918;2023-03-11T13:20:44;2.07;;;1.83;;
16977;SDS011;8605;52.548;4.918;2023-03-11T13:31:28;3.40;;;1.60;;
16977;SDS011;8605;52.548;4.918;2023-03-11T13:36:45;7.73;;;1.87;;
16977;SDS011;8605;52.548;4.918;2023-03-11T13:41:55;5.77;;;1.30;;
16977;SDS011;8605;52.548;4.918;2023-03-11T13:46:59;1.93;;;1.33;;
16977;SDS011;8605;52.548;4.918;2023-03-11T13:52:07;2.80;;;1.70;;
16977;SDS011;8605;52.548;4.918;2023-03-11T13:57:18;3.57;;;1.50;;
16977;SDS011;8605;52.548;4.918;2023-03-11T14:02:25;3.03;;;2.13;;
16977;SDS011;8605;52.548;4.918;2023-03-11T14:07:30;2.13;;;1.27;;
16977;SDS011;8605;52.548;4.918;2023-03-11T14:12:36;2.10;;;1.10;;
16977;SDS011;8605;52.548;4.918;2023-03-11T14:17:39;3.60;;;1.83;;
16977;SDS011;8605;52.548;4.918;2023-03-11T14:22:45;2.27;;;2.07;;
16977;SDS011;8605;52.548;4.918;2023-03-11T14:27:53;1.63;;;1.30;;
16977;SDS011;8605;52.548;4.918;2023-03-11T14:32:58;1.60;;;1.00;;
16977;SDS011;8605;52.548;4.918;2023-03-11T14:38:03;5.97;;;1.33;;
16977;SDS011;8605;52.548;4.918;2023-03-11T14:43:09;2.80;;;1.67;;
16977;SDS011;8605;52.548;4.918;2023-03-11T14:48:13;4.40;;;1.90;;
16977;SDS011;8605;52.548;4.918;2023-03-11T14:53:21;3.90;;;1.30;;
16977;SDS011;8605;52.548;4.918;2023-03-11T14:58:28;3.07;;;1.03;;
16977;SDS011;8605;52.548;4.918;2023-03-11T15:03:35;3.47;;;1.20;;
16977;SDS011;8605;52.548;4.918;2023-03-11T15:08:41;4.57;;;1.40;;
16977;SDS011;8605;52.548;4.918;2023-03-11T15:13:47;8.23;;;1.77;;
16977;SDS011;8605;52.548;4.918;2023-03-11T15:18:51;2.90;;;1.53;;
16977;SDS011;8605;52.548;4.918;2023-03-11T15:23:58;4.73;;;1.70;;
16977;SDS011;8605;52.548;4.918;2023-03-11T15:29:12;3.57;;;1.53;;
16977;SDS011;8605;52.548;4.918;2023-03-11T15:34:20;4.13;;;1.40;;
16977;SDS011;8605;52.548;4.918;2023-03-11T15:39:26;3.37;;;1.20;;
16977;SDS011;8605;52.548;4.918;2023-03-11T15:44:47;8.30;;;1.70;;
16977;SDS011;8605;52.548;4.918;2023-03-11T15:49:51;2.33;;;1.50;;
16977;SDS011;8605;52.548;4.918;2023-03-11T15:54:54;4.17;;;2.17;;
16977;SDS011;8605;52.548;4.918;2023-03-11T15:59:59;1.40;;;1.00;;
16977;SDS011;8605;52.548;4.918;2023-03-11T16:05:11;3.60;;;1.77;;
16977;SDS011;8605;52.548;4.918;2023-03-11T16:10:17;1.43;;;1.33;;
16977;SDS011;8605;52.548;4.918;2023-03-11T16:15:23;1.70;;;1.40;;
16977;SDS011;8605;52.548;4.918;2023-03-11T16:20:29;1.50;;;1.40;;
16977;SDS011;8605;52.548;4.918;2023-03-11T16:25:35;4.23;;;1.40;;
16977;SDS011;8605;52.548;4.918;2023-03-11T16:30:40;2.93;;;1.27;;
16977;SDS011;8605;52.548;4.918;2023-03-11T16:35:44;2.57;;;1.40;;
16977;SDS011;8605;52.548;4.918;2023-03-11T16:40:49;3.13;;;1.47;;
16977;SDS011;8605;52.548;4.918;2023-03-11T16:45:58;1.47;;;1.10;;
16977;SDS011;8605;52.548;4.918;2023-03-11T16:51:01;1.73;;;1.57;;
16977;SDS011;8605;52.548;4.918;2023-03-11T16:56:04;1.90;;;1.30;;
16977;SDS011;8605;52.548;4.918;2023-03-11T17:01:11;6.40;;;2.60;;
16977;SDS011;8605;52.548;4.918;2023-03-11T17:06:14;10.30;;;4.53;;
16977;SDS011;8605;52.548;4.918;2023-03-11T17:11:18;6.03;;;2.97;;
16977;SDS011;8605;52.548;4.918;2023-03-11T17:16:22;2.57;;;1.93;;
16977;SDS011;8605;52.548;4.918;2023-03-11T17:21:26;2.70;;;1.80;;
16977;SDS011;8605;52.548;4.918;2023-03-11T17:26:28;4.73;;;2.00;;
16977;SDS011;8605;52.548;4.918;2023-03-11T17:31:33;3.30;;;1.70;;
16977;SDS011;8605;52.548;4.918;2023-03-11T17:36:36;3.33;;;2.63;;
16977;SDS011;8605;52.548;4.918;2023-03-11T17:41:39;2.83;;;2.50;;
16977;SDS011;8605;52.548;4.918;2023-03-11T17:46:43;7.10;;;3.47;;
16977;SDS011;8605;52.548;4.918;2023-03-11T17:51:46;6.23;;;2.93;;
16977;SDS011;8605;52.548;4.918;2023-03-11T17:56:49;4.60;;;2.67;;
16977;SDS011;8605;52.548;4.918;2023-03-11T18:01:54;4.97;;;2.53;;
16977;SDS011;8605;52.548;4.918;2023-03-11T18:06:57;3.37;;;2.67;;
16977;SDS011;8605;52.548;4.918;2023-03-11T18:12:00;6.47;;;2.43;;
16977;SDS011;8605;52.548;4.918;2023-03-11T18:17:05;4.50;;;3.47;;
16977;SDS011;8605;52.548;4.918;2023-03-11T18:22:08;7.40;;;3.00;;
16977;SDS011;8605;52.548;4.918;2023-03-11T18:27:11;7.73;;;3.47;;
16977;SDS011;8605;52.548;4.918;2023-03-11T18:32:15;4.80;;;2.63;;
16977;SDS011;8605;52.548;4.918;2023-03-11T18:37:18;8.47;;;2.63;;
16977;SDS011;8605;52.548;4.918;2023-03-11T18:42:21;2.53;;;1.67;;
16977;SDS011;8605;52.548;4.918;2023-03-11T18:47:25;5.00;;;1.73;;
16977;SDS011;8605;52.548;4.918;2023-03-11T18:52:28;9.17;;;1.73;;
16977;SDS011;8605;52.548;4.918;2023-03-11T18:57:31;2.67;;;1.63;;
16977;SDS011;8605;52.548;4.918;2023-03-11T19:02:35;2.73;;;1.60;;
16977;SDS011;8605;52.548;4.918;2023-03-11T19:07:38;2.07;;;1.57;;
16977;SDS011;8605;52.548;4.918;2023-03-11T19:12:41;2.10;;;1.70;;
16977;SDS011;8605;52.548;4.918;2023-03-11T19:17:46;3.07;;;2.30;;
16977;SDS011;8605;52.548;4.918;2023-03-11T19:23:06;3.33;;;2.13;;
16977;SDS011;8605;52.548;4.918;2023-03-11T19:28:09;4.90;;;2.20;;
16977;SDS011;8605;52.548;4.918;2023-03-11T19:33:13;5.57;;;2.37;;
16977;SDS011;8605;52.548;4.918;2023-03-11T19:38:16;4.93;;;2.33;;
16977;SDS011;8605;52.548;4.918;2023-03-11T19:43:19;2.60;;;1.97;;
16977;SDS011;8605;52.548;4.918;2023-03-11T19:48:25;5.33;;;2.50;;
16977;SDS011;8605;52.548;4.918;2023-03-11T19:53:28;7.03;;;3.47;;
16977;SDS011;8605;52.548;4.918;2023-03-11T19:58:31;6.43;;;3.47;;
16977;SDS011;8605;52.548;4.918;2023-03-11T20:03:35;5.03;;;3.30;;
16977;SDS011;8605;52.548;4.918;2023-03-11T20:08:38;4.73;;;3.10;;
16977;SDS011;8605;52.548;4.918;2023-03-11T20:13:41;13.40;;;4.47;;
16977;SDS011;8605;52.548;4.918;2023-03-11T20:18:48;10.23;;;5.57;;
16977;SDS011;8605;52.548;4.918;2023-03-11T20:23:52;9.23;;;4.77;;
16977;SDS011;8605;52.548;4.918;2023-03-11T20:28:55;10.43;;;5.03;;
16977;SDS011;8605;52.548;4.918;2023-03-11T20:33:59;6.60;;;5.10;;
16977;SDS011;8605;52.548;4.918;2023-03-11T20:39:02;7.43;;;4.97;;
16977;SDS011;8605;52.548;4.918;2023-03-11T20:44:10;8.37;;;5.83;;
16977;SDS011;8605;52.548;4.918;2023-03-11T20:49:15;6.57;;;4.53;;
16977;SDS011;8605;52.548;4.918;2023-03-11T20:54:18;7.17;;;4.77;;
16977;SDS011;8605;52.548;4.918;2023-03-11T20:59:21;12.20;;;7.23;;
16977;SDS011;8605;52.548;4.918;2023-03-11T21:04:25;9.10;;;6.03;;
16977;SDS011;8605;52.548;4.918;2023-03-11T21:09:28;8.83;;;5.43;;
16977;SDS011;8605;52.548;4.918;2023-03-11T21:14:31;12.13;;;7.17;;
16977;SDS011;8605;52.548;4.918;2023-03-11T21:19:35;10.97;;;6.63;;
16977;SDS011;8605;52.548;4.918;2023-03-11T21:24:38;8.37;;;7.30;;
16977;SDS011;8605;52.548;4.918;2023-03-11T21:29:41;10.77;;;7.40;;
16977;SDS011;8605;52.548;4.918;2023-03-11T21:34:48;18.50;;;8.97;;
16977;SDS011;8605;52.548;4.918;2023-03-11T21:39:51;19.67;;;9.87;;
16977;SDS011;8605;52.548;4.918;2023-03-11T21:44:54;17.67;;;10.47;;
16977;SDS011;8605;52.548;4.918;2023-03-11T21:49:58;17.00;;;10.37;;
16977;SDS011;8605;52.548;4.918;2023-03-11T21:55:01;20.10;;;9.67;;
16977;SDS011;8605;52.548;4.918;2023-03-11T22:00:05;16.30;;;8.27;;
16977;SDS011;8605;52.548;4.918;2023-03-11T22:05:11;17.93;;;9.80;;
16977;SDS011;8605;52.548;4.918;2023-03-11T22:10:15;16.53;;;9.90;;
16977;SDS011;8605;52.548;4.918;2023-03-11T22:15:18;12.23;;;8.03;;
16977;SDS011;8605;52.548;4.918;2023-03-11T22:20:22;10.80;;;7.63;;
16977;SDS011;8605;52.548;4.918;2023-03-11T22:25:25;11.17;;;6.53;;
16977;SDS011;8605;52.548;4.918;2023-03-11T22:30:28;9.10;;;5.63;;
16977;SDS011;8605;52.548;4.918;2023-03-11T22:35:33;11.60;;;6.50;;
16977;SDS011;8605;52.548;4.918;2023-03-11T22:40:36;8.33;;;5.40;;
16977;SDS011;8605;52.548;4.918;2023-03-11T22:45:39;11.97;;;5.53;;
16977;SDS011;8605;52.548;4.918;2023-03-11T22:50:44;10.63;;;6.90;;
16977;SDS011;8605;52.548;4.918;2023-03-11T22:55:47;12.20;;;5.07;;
16977;SDS011;8605;52.548;4.918;2023-03-11T23:00:50;6.60;;;4.50;;
16977;SDS011;8605;52.548;4.918;2023-03-11T23:05:54;6.30;;;4.23;;
16977;SDS011;8605;52.548;4.918;2023-03-11T23:11:00;6.73;;;4.90;;
16977;SDS011;8605;52.548;4.918;2023-03-11T23:16:03;7.37;;;5.00;;
16977;SDS011;8605;52.548;4.918;2023-03-11T23:21:19;7.27;;;4.63;;
16977;SDS011;8605;52.548;4.918;2023-03-11T23:26:23;8.03;;;4.93;;
16977;SDS011;8605;52.548;4.918;2023-03-11T23:31:27;6.93;;;4.63;;
16977;SDS011;8605;52.548;4.918;2023-03-11T23:36:32;10.03;;;4.90;;
16977;SDS011;8605;52.548;4.918;2023-03-11T23:41:34;8.93;;;4.80;;
16977;SDS011;8605;52.548;4.918;2023-03-11T23:46:38;7.63;;;4.77;;
16977;SDS011;8605;52.548;4.918;2023-03-11T23:51:42;10.97;;;4.87;;
16977;SDS011;8605;52.548;4.918;2023-03-11T23:56:45;5.23;;;4.50;;
